sensor_id;sensor_type;location;lat;lon;timestamp;P1;durP1;ratioP1;P2;durP2;ratioP2
22894;SDS011;11614;52.494;6.976;2023-04-25T00:01:13;11.77;;;3.43;;
22894;SDS011;11614;52.494;6.976;2023-04-25T00:03:39;10.73;;;2.93;;
22894;SDS011;11614;52.494;6.976;2023-04-25T00:06:05;10.87;;;2.80;;
22894;SDS011;11614;52.494;6.976;2023-04-25T00:08:31;11.90;;;2.80;;
22894;SDS011;11614;52.494;6.976;2023-04-25T00:10:58;10.57;;;2.33;;
22894;SDS011;11614;52.494;6.976;2023-04-25T00:13:24;13.90;;;3.50;;
22894;SDS011;11614;52.494;6.976;2023-04-25T00:15:50;9.63;;;2.17;;
22894;SDS011;11614;52.494;6.976;2023-04-25T00:18:17;11.90;;;2.63;;
22894;SDS011;11614;52.494;6.976;2023-04-25T00:20:44;10.30;;;3.67;;
22894;SDS011;11614;52.494;6.976;2023-04-25T00:23:12;6.10;;;1.90;;
22894;SDS011;11614;52.494;6.976;2023-04-25T00:25:43;9.17;;;2.93;;
22894;SDS011;11614;52.494;6.976;2023-04-25T00:28:09;9.00;;;3.27;;
22894;SDS011;11614;52.494;6.976;2023-04-25T00:30:35;12.50;;;3.80;;
22894;SDS011;11614;52.494;6.976;2023-04-25T00:33:01;9.50;;;2.43;;
22894;SDS011;11614;52.494;6.976;2023-04-25T00:35:27;10.27;;;2.17;;
22894;SDS011;11614;52.494;6.976;2023-04-25T00:37:53;10.23;;;2.90;;
22894;SDS011;11614;52.494;6.976;2023-04-25T00:40:20;16.83;;;3.70;;
22894;SDS011;11614;52.494;6.976;2023-04-25T00:42:46;12.10;;;3.07;;
22894;SDS011;11614;52.494;6.976;2023-04-25T00:45:13;6.53;;;2.33;;
22894;SDS011;11614;52.494;6.976;2023-04-25T00:47:40;14.57;;;3.27;;
22894;SDS011;11614;52.494;6.976;2023-04-25T00:50:06;12.43;;;3.50;;
22894;SDS011;11614;52.494;6.976;2023-04-25T00:52:33;9.43;;;2.80;;
22894;SDS011;11614;52.494;6.976;2023-04-25T00:54:59;13.13;;;3.97;;
22894;SDS011;11614;52.494;6.976;2023-04-25T00:57:25;9.87;;;2.17;;
22894;SDS011;11614;52.494;6.976;2023-04-25T00:59:51;7.77;;;2.07;;
22894;SDS011;11614;52.494;6.976;2023-04-25T01:02:17;11.03;;;2.30;;
22894;SDS011;11614;52.494;6.976;2023-04-25T01:04:44;13.17;;;3.40;;
22894;SDS011;11614;52.494;6.976;2023-04-25T01:07:10;12.07;;;3.43;;
22894;SDS011;11614;52.494;6.976;2023-04-25T01:09:36;14.73;;;3.23;;
22894;SDS011;11614;52.494;6.976;2023-04-25T01:12:02;11.20;;;2.30;;
22894;SDS011;11614;52.494;6.976;2023-04-25T01:14:28;8.43;;;2.40;;
22894;SDS011;11614;52.494;6.976;2023-04-25T01:16:54;7.57;;;1.77;;
22894;SDS011;11614;52.494;6.976;2023-04-25T01:19:21;12.63;;;2.80;;
22894;SDS011;11614;52.494;6.976;2023-04-25T01:21:47;14.93;;;3.23;;
22894;SDS011;11614;52.494;6.976;2023-04-25T01:24:13;10.07;;;2.37;;
22894;SDS011;11614;52.494;6.976;2023-04-25T01:26:39;8.50;;;3.00;;
22894;SDS011;11614;52.494;6.976;2023-04-25T01:29:09;15.50;;;2.77;;
22894;SDS011;11614;52.494;6.976;2023-04-25T01:31:35;9.80;;;2.83;;
22894;SDS011;11614;52.494;6.976;2023-04-25T01:34:01;12.90;;;3.00;;
22894;SDS011;11614;52.494;6.976;2023-04-25T01:36:27;9.50;;;2.93;;
22894;SDS011;11614;52.494;6.976;2023-04-25T01:38:53;11.93;;;2.60;;
22894;SDS011;11614;52.494;6.976;2023-04-25T01:41:20;12.73;;;3.03;;
22894;SDS011;11614;52.494;6.976;2023-04-25T01:43:48;14.20;;;4.20;;
22894;SDS011;11614;52.494;6.976;2023-04-25T01:46:14;11.03;;;2.07;;
22894;SDS011;11614;52.494;6.976;2023-04-25T01:48:40;11.70;;;3.03;;
22894;SDS011;11614;52.494;6.976;2023-04-25T01:51:06;11.70;;;2.87;;
22894;SDS011;11614;52.494;6.976;2023-04-25T01:53:32;16.90;;;3.97;;
22894;SDS011;11614;52.494;6.976;2023-04-25T01:55:58;15.47;;;3.47;;
22894;SDS011;11614;52.494;6.976;2023-04-25T01:58:24;16.17;;;4.40;;
22894;SDS011;11614;52.494;6.976;2023-04-25T02:00:50;14.07;;;3.80;;
22894;SDS011;11614;52.494;6.976;2023-04-25T02:03:16;18.77;;;4.27;;
22894;SDS011;11614;52.494;6.976;2023-04-25T02:05:41;15.47;;;4.80;;
22894;SDS011;11614;52.494;6.976;2023-04-25T02:08:07;13.77;;;4.43;;
22894;SDS011;11614;52.494;6.976;2023-04-25T02:10:34;13.43;;;3.73;;
22894;SDS011;11614;52.494;6.976;2023-04-25T02:13:00;8.17;;;3.43;;
22894;SDS011;11614;52.494;6.976;2023-04-25T02:15:26;16.63;;;4.17;;
22894;SDS011;11614;52.494;6.976;2023-04-25T02:17:52;12.83;;;3.20;;
22894;SDS011;11614;52.494;6.976;2023-04-25T02:20:19;9.63;;;3.40;;
22894;SDS011;11614;52.494;6.976;2023-04-25T02:22:46;8.40;;;3.10;;
22894;SDS011;11614;52.494;6.976;2023-04-25T02:25:12;20.43;;;4.97;;
22894;SDS011;11614;52.494;6.976;2023-04-25T02:27:38;10.13;;;3.57;;
22894;SDS011;11614;52.494;6.976;2023-04-25T02:30:04;7.20;;;2.00;;
22894;SDS011;11614;52.494;6.976;2023-04-25T02:32:31;11.10;;;3.53;;
22894;SDS011;11614;52.494;6.976;2023-04-25T02:34:57;12.00;;;3.63;;
22894;SDS011;11614;52.494;6.976;2023-04-25T02:37:28;9.80;;;2.70;;
22894;SDS011;11614;52.494;6.976;2023-04-25T02:39:54;12.20;;;2.70;;
22894;SDS011;11614;52.494;6.976;2023-04-25T02:42:20;10.03;;;3.10;;
22894;SDS011;11614;52.494;6.976;2023-04-25T02:44:46;11.27;;;2.90;;
22894;SDS011;11614;52.494;6.976;2023-04-25T02:47:12;3.83;;;0.97;;
22894;SDS011;11614;52.494;6.976;2023-04-25T02:49:38;9.87;;;3.47;;
22894;SDS011;11614;52.494;6.976;2023-04-25T02:52:04;7.10;;;2.27;;
22894;SDS011;11614;52.494;6.976;2023-04-25T02:54:30;7.63;;;3.03;;
22894;SDS011;11614;52.494;6.976;2023-04-25T02:56:56;14.50;;;3.93;;
22894;SDS011;11614;52.494;6.976;2023-04-25T02:59:22;9.23;;;2.93;;
22894;SDS011;11614;52.494;6.976;2023-04-25T03:01:48;11.03;;;2.83;;
22894;SDS011;11614;52.494;6.976;2023-04-25T03:04:14;18.30;;;5.23;;
22894;SDS011;11614;52.494;6.976;2023-04-25T03:06:40;10.87;;;3.20;;
22894;SDS011;11614;52.494;6.976;2023-04-25T03:09:06;16.13;;;4.10;;
22894;SDS011;11614;52.494;6.976;2023-04-25T03:11:32;9.27;;;2.17;;
22894;SDS011;11614;52.494;6.976;2023-04-25T03:13:58;12.97;;;3.70;;
22894;SDS011;11614;52.494;6.976;2023-04-25T03:16:24;10.50;;;2.87;;
22894;SDS011;11614;52.494;6.976;2023-04-25T03:18:50;11.80;;;3.00;;
22894;SDS011;11614;52.494;6.976;2023-04-25T03:21:16;8.83;;;3.50;;
22894;SDS011;11614;52.494;6.976;2023-04-25T03:23:42;9.63;;;3.83;;
22894;SDS011;11614;52.494;6.976;2023-04-25T03:26:08;8.13;;;2.83;;
22894;SDS011;11614;52.494;6.976;2023-04-25T03:28:33;11.13;;;2.97;;
22894;SDS011;11614;52.494;6.976;2023-04-25T03:30:59;11.47;;;2.53;;
22894;SDS011;11614;52.494;6.976;2023-04-25T03:33:25;14.47;;;5.13;;
22894;SDS011;11614;52.494;6.976;2023-04-25T03:35:50;10.97;;;2.63;;
22894;SDS011;11614;52.494;6.976;2023-04-25T03:38:16;10.00;;;2.30;;
22894;SDS011;11614;52.494;6.976;2023-04-25T03:40:42;11.93;;;2.70;;
22894;SDS011;11614;52.494;6.976;2023-04-25T03:43:11;7.20;;;2.23;;
22894;SDS011;11614;52.494;6.976;2023-04-25T03:45:36;11.73;;;2.90;;
22894;SDS011;11614;52.494;6.976;2023-04-25T03:48:02;7.67;;;2.27;;
22894;SDS011;11614;52.494;6.976;2023-04-25T03:50:27;11.23;;;3.17;;
22894;SDS011;11614;52.494;6.976;2023-04-25T03:52:53;5.90;;;1.77;;
22894;SDS011;11614;52.494;6.976;2023-04-25T03:55:19;13.37;;;3.00;;
22894;SDS011;11614;52.494;6.976;2023-04-25T03:57:45;8.63;;;1.87;;
22894;SDS011;11614;52.494;6.976;2023-04-25T04:00:10;9.90;;;2.77;;
22894;SDS011;11614;52.494;6.976;2023-04-25T04:02:36;6.07;;;1.73;;
22894;SDS011;11614;52.494;6.976;2023-04-25T04:05:03;4.03;;;1.13;;
22894;SDS011;11614;52.494;6.976;2023-04-25T04:07:30;9.80;;;1.73;;
22894;SDS011;11614;52.494;6.976;2023-04-25T04:09:58;10.07;;;2.33;;
22894;SDS011;11614;52.494;6.976;2023-04-25T04:12:24;5.43;;;0.83;;
22894;SDS011;11614;52.494;6.976;2023-04-25T04:14:50;20.30;;;4.13;;
22894;SDS011;11614;52.494;6.976;2023-04-25T04:17:15;9.30;;;1.73;;
22894;SDS011;11614;52.494;6.976;2023-04-25T04:19:41;5.80;;;1.50;;
22894;SDS011;11614;52.494;6.976;2023-04-25T04:22:07;4.73;;;1.23;;
22894;SDS011;11614;52.494;6.976;2023-04-25T04:24:33;8.80;;;1.63;;
22894;SDS011;11614;52.494;6.976;2023-04-25T04:26:59;6.40;;;1.17;;
22894;SDS011;11614;52.494;6.976;2023-04-25T04:29:24;3.80;;;1.50;;
22894;SDS011;11614;52.494;6.976;2023-04-25T04:31:51;9.33;;;1.70;;
22894;SDS011;11614;52.494;6.976;2023-04-25T04:34:17;3.83;;;0.93;;
22894;SDS011;11614;52.494;6.976;2023-04-25T04:36:43;7.00;;;1.67;;
22894;SDS011;11614;52.494;6.976;2023-04-25T04:39:11;7.23;;;0.97;;
22894;SDS011;11614;52.494;6.976;2023-04-25T04:41:37;10.07;;;1.50;;
22894;SDS011;11614;52.494;6.976;2023-04-25T04:44:03;4.27;;;0.67;;
22894;SDS011;11614;52.494;6.976;2023-04-25T04:46:28;7.47;;;1.43;;
22894;SDS011;11614;52.494;6.976;2023-04-25T04:48:56;2.50;;;0.90;;
22894;SDS011;11614;52.494;6.976;2023-04-25T04:51:22;2.50;;;1.10;;
22894;SDS011;11614;52.494;6.976;2023-04-25T04:53:47;4.70;;;1.07;;
22894;SDS011;11614;52.494;6.976;2023-04-25T04:56:13;4.23;;;1.27;;
22894;SDS011;11614;52.494;6.976;2023-04-25T04:58:39;2.60;;;0.60;;
22894;SDS011;11614;52.494;6.976;2023-04-25T05:01:05;5.70;;;0.93;;
22894;SDS011;11614;52.494;6.976;2023-04-25T05:03:31;5.23;;;1.47;;
22894;SDS011;11614;52.494;6.976;2023-04-25T05:05:56;4.57;;;0.73;;
22894;SDS011;11614;52.494;6.976;2023-04-25T05:08:22;4.50;;;1.07;;
22894;SDS011;11614;52.494;6.976;2023-04-25T05:10:47;7.37;;;1.37;;
22894;SDS011;11614;52.494;6.976;2023-04-25T05:13:13;5.53;;;1.53;;
22894;SDS011;11614;52.494;6.976;2023-04-25T05:15:39;4.43;;;1.03;;
22894;SDS011;11614;52.494;6.976;2023-04-25T05:18:05;5.60;;;1.20;;
22894;SDS011;11614;52.494;6.976;2023-04-25T05:20:31;2.77;;;1.20;;
22894;SDS011;11614;52.494;6.976;2023-04-25T05:22:57;2.63;;;0.83;;
22894;SDS011;11614;52.494;6.976;2023-04-25T05:25:23;5.77;;;1.07;;
22894;SDS011;11614;52.494;6.976;2023-04-25T05:27:49;5.97;;;0.80;;
22894;SDS011;11614;52.494;6.976;2023-04-25T05:30:16;4.83;;;1.10;;
22894;SDS011;11614;52.494;6.976;2023-04-25T05:32:42;4.90;;;0.97;;
22894;SDS011;11614;52.494;6.976;2023-04-25T05:35:08;3.80;;;0.77;;
22894;SDS011;11614;52.494;6.976;2023-04-25T05:37:34;5.47;;;1.43;;
22894;SDS011;11614;52.494;6.976;2023-04-25T05:40:00;4.47;;;1.03;;
22894;SDS011;11614;52.494;6.976;2023-04-25T05:42:25;3.80;;;0.90;;
22894;SDS011;11614;52.494;6.976;2023-04-25T05:44:51;3.70;;;0.97;;
22894;SDS011;11614;52.494;6.976;2023-04-25T05:47:17;2.93;;;0.80;;
22894;SDS011;11614;52.494;6.976;2023-04-25T05:49:43;4.93;;;1.90;;
22894;SDS011;11614;52.494;6.976;2023-04-25T05:52:09;5.17;;;1.03;;
22894;SDS011;11614;52.494;6.976;2023-04-25T05:54:35;2.93;;;0.50;;
22894;SDS011;11614;52.494;6.976;2023-04-25T05:57:00;6.27;;;1.50;;
22894;SDS011;11614;52.494;6.976;2023-04-25T05:59:27;2.53;;;1.13;;
22894;SDS011;11614;52.494;6.976;2023-04-25T06:01:53;3.67;;;1.17;;
22894;SDS011;11614;52.494;6.976;2023-04-25T06:04:19;8.50;;;2.10;;
22894;SDS011;11614;52.494;6.976;2023-04-25T06:06:45;6.77;;;1.77;;
22894;SDS011;11614;52.494;6.976;2023-04-25T06:09:11;4.67;;;1.20;;
22894;SDS011;11614;52.494;6.976;2023-04-25T06:11:37;9.83;;;1.70;;
22894;SDS011;11614;52.494;6.976;2023-04-25T06:14:03;5.93;;;1.07;;
22894;SDS011;11614;52.494;6.976;2023-04-25T06:16:29;5.80;;;1.20;;
22894;SDS011;11614;52.494;6.976;2023-04-25T06:18:55;2.10;;;0.43;;
22894;SDS011;11614;52.494;6.976;2023-04-25T06:21:21;8.23;;;1.67;;
22894;SDS011;11614;52.494;6.976;2023-04-25T06:23:47;6.13;;;1.10;;
22894;SDS011;11614;52.494;6.976;2023-04-25T06:26:12;6.03;;;0.80;;
22894;SDS011;11614;52.494;6.976;2023-04-25T06:28:38;4.90;;;1.00;;
22894;SDS011;11614;52.494;6.976;2023-04-25T06:31:03;4.97;;;0.80;;
22894;SDS011;11614;52.494;6.976;2023-04-25T06:33:29;3.90;;;0.83;;
22894;SDS011;11614;52.494;6.976;2023-04-25T06:35:55;5.20;;;1.30;;
22894;SDS011;11614;52.494;6.976;2023-04-25T06:38:21;5.67;;;1.57;;
22894;SDS011;11614;52.494;6.976;2023-04-25T06:40:46;3.97;;;0.80;;
22894;SDS011;11614;52.494;6.976;2023-04-25T06:43:12;6.67;;;1.30;;
22894;SDS011;11614;52.494;6.976;2023-04-25T06:45:38;4.97;;;1.40;;
22894;SDS011;11614;52.494;6.976;2023-04-25T06:48:03;5.10;;;1.23;;
22894;SDS011;11614;52.494;6.976;2023-04-25T06:50:29;5.70;;;1.37;;
22894;SDS011;11614;52.494;6.976;2023-04-25T06:52:55;4.27;;;1.17;;
22894;SDS011;11614;52.494;6.976;2023-04-25T06:55:21;3.13;;;0.77;;
22894;SDS011;11614;52.494;6.976;2023-04-25T06:57:47;3.97;;;1.07;;
22894;SDS011;11614;52.494;6.976;2023-04-25T07:00:12;5.00;;;0.97;;
22894;SDS011;11614;52.494;6.976;2023-04-25T07:02:38;2.83;;;0.70;;
22894;SDS011;11614;52.494;6.976;2023-04-25T07:05:05;4.73;;;1.40;;
22894;SDS011;11614;52.494;6.976;2023-04-25T07:07:31;3.60;;;0.70;;
22894;SDS011;11614;52.494;6.976;2023-04-25T07:09:56;3.77;;;0.93;;
22894;SDS011;11614;52.494;6.976;2023-04-25T07:12:22;3.93;;;1.10;;
22894;SDS011;11614;52.494;6.976;2023-04-25T07:14:48;6.37;;;1.53;;
22894;SDS011;11614;52.494;6.976;2023-04-25T07:17:13;4.30;;;0.93;;
22894;SDS011;11614;52.494;6.976;2023-04-25T07:19:40;5.30;;;1.00;;
22894;SDS011;11614;52.494;6.976;2023-04-25T07:22:06;3.53;;;0.57;;
22894;SDS011;11614;52.494;6.976;2023-04-25T07:24:31;2.57;;;0.63;;
22894;SDS011;11614;52.494;6.976;2023-04-25T07:26:57;5.87;;;1.13;;
22894;SDS011;11614;52.494;6.976;2023-04-25T07:29:23;6.07;;;1.20;;
22894;SDS011;11614;52.494;6.976;2023-04-25T07:31:49;4.83;;;0.90;;
22894;SDS011;11614;52.494;6.976;2023-04-25T07:34:17;3.47;;;0.37;;
22894;SDS011;11614;52.494;6.976;2023-04-25T07:36:43;5.13;;;1.33;;
22894;SDS011;11614;52.494;6.976;2023-04-25T07:39:10;3.70;;;1.13;;
22894;SDS011;11614;52.494;6.976;2023-04-25T07:41:36;6.90;;;1.10;;
22894;SDS011;11614;52.494;6.976;2023-04-25T07:44:02;4.23;;;1.17;;
22894;SDS011;11614;52.494;6.976;2023-04-25T07:46:28;5.60;;;1.43;;
22894;SDS011;11614;52.494;6.976;2023-04-25T07:48:54;4.07;;;1.20;;
22894;SDS011;11614;52.494;6.976;2023-04-25T07:51:20;5.67;;;1.70;;
22894;SDS011;11614;52.494;6.976;2023-04-25T07:53:47;3.07;;;0.90;;
22894;SDS011;11614;52.494;6.976;2023-04-25T07:56:13;5.60;;;1.17;;
22894;SDS011;11614;52.494;6.976;2023-04-25T07:58:39;3.17;;;0.70;;
22894;SDS011;11614;52.494;6.976;2023-04-25T08:01:05;7.30;;;1.10;;
22894;SDS011;11614;52.494;6.976;2023-04-25T08:03:31;3.53;;;0.90;;
22894;SDS011;11614;52.494;6.976;2023-04-25T08:05:57;1.87;;;0.70;;
22894;SDS011;11614;52.494;6.976;2023-04-25T08:08:23;6.10;;;1.00;;
22894;SDS011;11614;52.494;6.976;2023-04-25T08:10:49;4.63;;;0.90;;
22894;SDS011;11614;52.494;6.976;2023-04-25T08:13:15;4.87;;;0.97;;
22894;SDS011;11614;52.494;6.976;2023-04-25T08:15:41;4.73;;;1.37;;
22894;SDS011;11614;52.494;6.976;2023-04-25T08:18:07;3.50;;;1.37;;
22894;SDS011;11614;52.494;6.976;2023-04-25T08:20:33;5.63;;;1.83;;
22894;SDS011;11614;52.494;6.976;2023-04-25T08:22:59;2.93;;;1.40;;
22894;SDS011;11614;52.494;6.976;2023-04-25T08:25:25;4.10;;;1.07;;
22894;SDS011;11614;52.494;6.976;2023-04-25T08:27:51;1.93;;;0.60;;
22894;SDS011;11614;52.494;6.976;2023-04-25T08:30:17;2.13;;;0.40;;
22894;SDS011;11614;52.494;6.976;2023-04-25T08:32:44;3.03;;;0.87;;
22894;SDS011;11614;52.494;6.976;2023-04-25T08:35:09;1.77;;;0.33;;
22894;SDS011;11614;52.494;6.976;2023-04-25T08:37:36;2.33;;;0.50;;
22894;SDS011;11614;52.494;6.976;2023-04-25T08:40:03;3.20;;;0.53;;
22894;SDS011;11614;52.494;6.976;2023-04-25T08:42:32;2.43;;;0.60;;
22894;SDS011;11614;52.494;6.976;2023-04-25T08:45:00;2.57;;;0.70;;
22894;SDS011;11614;52.494;6.976;2023-04-25T08:47:27;0.87;;;0.20;;
22894;SDS011;11614;52.494;6.976;2023-04-25T08:49:53;1.07;;;0.47;;
22894;SDS011;11614;52.494;6.976;2023-04-25T08:52:21;2.87;;;1.17;;
22894;SDS011;11614;52.494;6.976;2023-04-25T08:54:48;1.33;;;0.40;;
22894;SDS011;11614;52.494;6.976;2023-04-25T08:57:14;3.07;;;0.93;;
22894;SDS011;11614;52.494;6.976;2023-04-25T08:59:40;2.43;;;0.60;;
22894;SDS011;11614;52.494;6.976;2023-04-25T09:02:10;1.80;;;0.50;;
22894;SDS011;11614;52.494;6.976;2023-04-25T09:04:39;1.50;;;0.30;;
22894;SDS011;11614;52.494;6.976;2023-04-25T09:07:05;3.93;;;0.50;;
22894;SDS011;11614;52.494;6.976;2023-04-25T09:09:31;3.47;;;0.70;;
22894;SDS011;11614;52.494;6.976;2023-04-25T09:11:57;1.20;;;0.30;;
22894;SDS011;11614;52.494;6.976;2023-04-25T09:14:24;1.93;;;0.50;;
22894;SDS011;11614;52.494;6.976;2023-04-25T09:19:29;2.67;;;0.50;;
22894;SDS011;11614;52.494;6.976;2023-04-25T09:21:59;2.17;;;0.67;;
22894;SDS011;11614;52.494;6.976;2023-04-25T09:24:42;1.73;;;0.63;;
22894;SDS011;11614;52.494;6.976;2023-04-25T09:27:11;2.23;;;0.50;;
22894;SDS011;11614;52.494;6.976;2023-04-25T09:29:38;3.07;;;0.63;;
22894;SDS011;11614;52.494;6.976;2023-04-25T09:34:43;2.30;;;0.50;;
22894;SDS011;11614;52.494;6.976;2023-04-25T09:37:09;1.97;;;0.43;;
22894;SDS011;11614;52.494;6.976;2023-04-25T09:39:38;0.37;;;0.20;;
22894;SDS011;11614;52.494;6.976;2023-04-25T09:42:05;1.87;;;0.33;;
22894;SDS011;11614;52.494;6.976;2023-04-25T09:44:31;3.87;;;0.93;;
22894;SDS011;11614;52.494;6.976;2023-04-25T09:46:57;1.80;;;0.50;;
22894;SDS011;11614;52.494;6.976;2023-04-25T09:49:24;2.87;;;0.47;;
22894;SDS011;11614;52.494;6.976;2023-04-25T09:51:54;2.60;;;0.57;;
22894;SDS011;11614;52.494;6.976;2023-04-25T09:54:21;2.27;;;0.30;;
22894;SDS011;11614;52.494;6.976;2023-04-25T09:56:47;1.50;;;0.53;;
22894;SDS011;11614;52.494;6.976;2023-04-25T09:59:13;2.70;;;0.77;;
22894;SDS011;11614;52.494;6.976;2023-04-25T10:01:40;2.83;;;0.40;;
22894;SDS011;11614;52.494;6.976;2023-04-25T10:04:06;0.97;;;0.20;;
22894;SDS011;11614;52.494;6.976;2023-04-25T10:06:34;1.53;;;0.30;;
22894;SDS011;11614;52.494;6.976;2023-04-25T10:09:01;1.87;;;0.30;;
22894;SDS011;11614;52.494;6.976;2023-04-25T10:11:28;2.13;;;0.20;;
22894;SDS011;11614;52.494;6.976;2023-04-25T10:13:55;2.83;;;0.50;;
22894;SDS011;11614;52.494;6.976;2023-04-25T10:16:21;2.10;;;0.47;;
22894;SDS011;11614;52.494;6.976;2023-04-25T10:18:47;1.47;;;0.30;;
22894;SDS011;11614;52.494;6.976;2023-04-25T10:21:14;1.20;;;0.20;;
22894;SDS011;11614;52.494;6.976;2023-04-25T10:23:41;1.50;;;0.30;;
22894;SDS011;11614;52.494;6.976;2023-04-25T10:26:07;2.30;;;0.37;;
22894;SDS011;11614;52.494;6.976;2023-04-25T10:28:56;1.87;;;0.57;;
22894;SDS011;11614;52.494;6.976;2023-04-25T10:31:26;1.13;;;0.47;;
22894;SDS011;11614;52.494;6.976;2023-04-25T10:33:52;1.47;;;0.53;;
22894;SDS011;11614;52.494;6.976;2023-04-25T10:36:19;1.03;;;0.40;;
22894;SDS011;11614;52.494;6.976;2023-04-25T10:38:49;0.60;;;0.30;;
22894;SDS011;11614;52.494;6.976;2023-04-25T10:41:19;2.13;;;0.53;;
22894;SDS011;11614;52.494;6.976;2023-04-25T10:43:46;1.20;;;0.30;;
22894;SDS011;11614;52.494;6.976;2023-04-25T10:48:38;3.80;;;0.83;;
22894;SDS011;11614;52.494;6.976;2023-04-25T10:51:15;1.53;;;0.30;;
22894;SDS011;11614;52.494;6.976;2023-04-25T10:53:41;2.00;;;0.57;;
22894;SDS011;11614;52.494;6.976;2023-04-25T10:58:47;2.87;;;0.50;;
22894;SDS011;11614;52.494;6.976;2023-04-25T11:01:13;1.27;;;0.30;;
22894;SDS011;11614;52.494;6.976;2023-04-25T11:03:43;1.10;;;0.37;;
22894;SDS011;11614;52.494;6.976;2023-04-25T11:06:29;1.90;;;0.70;;
22894;SDS011;11614;52.494;6.976;2023-04-25T11:08:57;1.57;;;0.47;;
22894;SDS011;11614;52.494;6.976;2023-04-25T11:11:25;1.37;;;0.50;;
22894;SDS011;11614;52.494;6.976;2023-04-25T11:13:52;1.23;;;0.43;;
22894;SDS011;11614;52.494;6.976;2023-04-25T11:16:18;3.17;;;0.70;;
22894;SDS011;11614;52.494;6.976;2023-04-25T11:18:44;3.47;;;0.90;;
22894;SDS011;11614;52.494;6.976;2023-04-25T11:21:10;1.13;;;0.37;;
22894;SDS011;11614;52.494;6.976;2023-04-25T11:23:36;3.43;;;0.73;;
22894;SDS011;11614;52.494;6.976;2023-04-25T11:26:03;2.47;;;0.90;;
22894;SDS011;11614;52.494;6.976;2023-04-25T11:28:29;5.27;;;0.80;;
22894;SDS011;11614;52.494;6.976;2023-04-25T11:30:55;5.03;;;0.60;;
22894;SDS011;11614;52.494;6.976;2023-04-25T11:33:25;3.43;;;0.37;;
22894;SDS011;11614;52.494;6.976;2023-04-25T11:35:53;1.63;;;0.40;;
22894;SDS011;11614;52.494;6.976;2023-04-25T11:38:20;2.50;;;0.50;;
22894;SDS011;11614;52.494;6.976;2023-04-25T11:40:50;2.57;;;0.40;;
22894;SDS011;11614;52.494;6.976;2023-04-25T11:43:20;2.33;;;0.70;;
22894;SDS011;11614;52.494;6.976;2023-04-25T11:45:47;4.27;;;0.60;;
22894;SDS011;11614;52.494;6.976;2023-04-25T11:48:13;3.20;;;0.80;;
22894;SDS011;11614;52.494;6.976;2023-04-25T11:50:39;1.90;;;0.40;;
22894;SDS011;11614;52.494;6.976;2023-04-25T11:53:05;3.03;;;0.50;;
22894;SDS011;11614;52.494;6.976;2023-04-25T11:55:33;1.80;;;0.70;;
22894;SDS011;11614;52.494;6.976;2023-04-25T11:58:00;3.93;;;0.80;;
22894;SDS011;11614;52.494;6.976;2023-04-25T12:00:27;5.47;;;0.90;;
22894;SDS011;11614;52.494;6.976;2023-04-25T12:02:54;0.87;;;0.40;;
22894;SDS011;11614;52.494;6.976;2023-04-25T12:05:20;9.30;;;0.57;;
22894;SDS011;11614;52.494;6.976;2023-04-25T12:07:46;2.63;;;0.90;;
22894;SDS011;11614;52.494;6.976;2023-04-25T12:10:13;2.37;;;0.80;;
22894;SDS011;11614;52.494;6.976;2023-04-25T12:12:42;4.67;;;1.30;;
22894;SDS011;11614;52.494;6.976;2023-04-25T12:15:09;8.60;;;0.80;;
22894;SDS011;11614;52.494;6.976;2023-04-25T12:17:36;3.50;;;0.80;;
22894;SDS011;11614;52.494;6.976;2023-04-25T12:20:06;2.93;;;0.60;;
22894;SDS011;11614;52.494;6.976;2023-04-25T12:22:33;3.50;;;0.43;;
22894;SDS011;11614;52.494;6.976;2023-04-25T12:24:59;1.33;;;0.60;;
22894;SDS011;11614;52.494;6.976;2023-04-25T12:27:25;1.40;;;0.60;;
22894;SDS011;11614;52.494;6.976;2023-04-25T12:29:55;1.43;;;0.60;;
22894;SDS011;11614;52.494;6.976;2023-04-25T12:32:22;2.10;;;0.60;;
22894;SDS011;11614;52.494;6.976;2023-04-25T12:34:48;2.13;;;0.70;;
22894;SDS011;11614;52.494;6.976;2023-04-25T12:37:14;1.90;;;0.30;;
22894;SDS011;11614;52.494;6.976;2023-04-25T12:39:40;1.63;;;0.50;;
22894;SDS011;11614;52.494;6.976;2023-04-25T12:42:06;0.63;;;0.30;;
22894;SDS011;11614;52.494;6.976;2023-04-25T12:44:33;1.30;;;0.30;;
22894;SDS011;11614;52.494;6.976;2023-04-25T12:46:59;1.30;;;0.50;;
22894;SDS011;11614;52.494;6.976;2023-04-25T12:49:25;1.93;;;0.60;;
22894;SDS011;11614;52.494;6.976;2023-04-25T12:51:51;1.27;;;0.33;;
22894;SDS011;11614;52.494;6.976;2023-04-25T12:54:17;1.80;;;0.70;;
22894;SDS011;11614;52.494;6.976;2023-04-25T12:56:43;1.00;;;0.47;;
22894;SDS011;11614;52.494;6.976;2023-04-25T12:59:08;2.13;;;0.90;;
22894;SDS011;11614;52.494;6.976;2023-04-25T13:01:35;3.33;;;1.00;;
22894;SDS011;11614;52.494;6.976;2023-04-25T13:04:01;4.67;;;1.00;;
22894;SDS011;11614;52.494;6.976;2023-04-25T13:06:27;3.33;;;0.80;;
22894;SDS011;11614;52.494;6.976;2023-04-25T13:08:54;1.67;;;0.43;;
22894;SDS011;11614;52.494;6.976;2023-04-25T13:11:20;2.60;;;0.77;;
22894;SDS011;11614;52.494;6.976;2023-04-25T13:13:46;3.53;;;0.83;;
22894;SDS011;11614;52.494;6.976;2023-04-25T13:16:12;2.10;;;0.70;;
22894;SDS011;11614;52.494;6.976;2023-04-25T13:18:39;3.43;;;1.00;;
22894;SDS011;11614;52.494;6.976;2023-04-25T13:21:05;2.93;;;0.93;;
22894;SDS011;11614;52.494;6.976;2023-04-25T13:23:31;1.90;;;0.60;;
22894;SDS011;11614;52.494;6.976;2023-04-25T13:25:57;2.20;;;0.80;;
22894;SDS011;11614;52.494;6.976;2023-04-25T13:28:24;3.43;;;0.63;;
22894;SDS011;11614;52.494;6.976;2023-04-25T13:30:50;3.10;;;0.53;;
22894;SDS011;11614;52.494;6.976;2023-04-25T13:33:17;1.50;;;0.57;;
22894;SDS011;11614;52.494;6.976;2023-04-25T13:35:43;2.70;;;0.37;;
22894;SDS011;11614;52.494;6.976;2023-04-25T13:38:11;5.30;;;0.40;;
22894;SDS011;11614;52.494;6.976;2023-04-25T13:40:37;2.63;;;0.77;;
22894;SDS011;11614;52.494;6.976;2023-04-25T13:43:03;3.73;;;0.73;;
22894;SDS011;11614;52.494;6.976;2023-04-25T13:45:31;3.83;;;0.40;;
22894;SDS011;11614;52.494;6.976;2023-04-25T13:47:57;2.80;;;0.70;;
22894;SDS011;11614;52.494;6.976;2023-04-25T13:50:23;1.57;;;0.43;;
22894;SDS011;11614;52.494;6.976;2023-04-25T13:52:49;3.73;;;0.40;;
22894;SDS011;11614;52.494;6.976;2023-04-25T13:55:15;1.83;;;0.50;;
22894;SDS011;11614;52.494;6.976;2023-04-25T13:57:41;1.60;;;0.53;;
22894;SDS011;11614;52.494;6.976;2023-04-25T14:00:07;3.30;;;0.60;;
22894;SDS011;11614;52.494;6.976;2023-04-25T14:02:36;3.93;;;0.43;;
22894;SDS011;11614;52.494;6.976;2023-04-25T14:05:03;2.80;;;1.00;;
22894;SDS011;11614;52.494;6.976;2023-04-25T14:07:29;2.50;;;0.83;;
22894;SDS011;11614;52.494;6.976;2023-04-25T14:09:55;2.97;;;0.70;;
22894;SDS011;11614;52.494;6.976;2023-04-25T14:12:22;3.13;;;0.43;;
22894;SDS011;11614;52.494;6.976;2023-04-25T14:14:48;3.17;;;0.87;;
22894;SDS011;11614;52.494;6.976;2023-04-25T14:17:14;1.53;;;0.70;;
22894;SDS011;11614;52.494;6.976;2023-04-25T14:19:40;5.60;;;1.00;;
22894;SDS011;11614;52.494;6.976;2023-04-25T14:22:10;3.40;;;0.50;;
22894;SDS011;11614;52.494;6.976;2023-04-25T14:24:36;4.03;;;0.70;;
22894;SDS011;11614;52.494;6.976;2023-04-25T14:27:02;3.67;;;0.50;;
22894;SDS011;11614;52.494;6.976;2023-04-25T14:29:29;5.57;;;0.70;;
22894;SDS011;11614;52.494;6.976;2023-04-25T14:31:55;1.73;;;0.23;;
22894;SDS011;11614;52.494;6.976;2023-04-25T14:34:22;0.70;;;0.30;;
22894;SDS011;11614;52.494;6.976;2023-04-25T14:36:48;3.23;;;0.40;;
22894;SDS011;11614;52.494;6.976;2023-04-25T14:39:14;0.57;;;0.20;;
22894;SDS011;11614;52.494;6.976;2023-04-25T14:41:41;2.07;;;0.40;;
22894;SDS011;11614;52.494;6.976;2023-04-25T14:44:07;0.53;;;0.03;;
22894;SDS011;11614;52.494;6.976;2023-04-25T14:46:33;1.30;;;0.30;;
22894;SDS011;11614;52.494;6.976;2023-04-25T14:48:59;1.80;;;0.43;;
22894;SDS011;11614;52.494;6.976;2023-04-25T14:51:25;1.57;;;0.23;;